sensor_id;sensor_type;location;lat;lon;timestamp;P1;durP1;ratioP1;P2;durP2;ratioP2
40254;SDS011;25973;52.368;4.940;2023-05-07T00:01:38;29.80;;;15.07;;
40254;SDS011;25973;52.368;4.940;2023-05-07T00:04:04;38.78;;;18.00;;
40254;SDS011;25973;52.368;4.940;2023-05-07T00:06:29;29.13;;;16.23;;
40254;SDS011;25973;52.368;4.940;2023-05-07T00:08:58;22.10;;;14.93;;
40254;SDS011;25973;52.368;4.940;2023-05-07T00:11:24;29.27;;;15.20;;
40254;SDS011;25973;52.368;4.940;2023-05-07T00:13:50;28.75;;;16.77;;
40254;SDS011;25973;52.368;4.940;2023-05-07T00:16:16;30.88;;;16.98;;
40254;SDS011;25973;52.368;4.940;2023-05-07T00:18:44;26.75;;;15.75;;
40254;SDS011;25973;52.368;4.940;2023-05-07T00:21:10;33.75;;;18.23;;
40254;SDS011;25973;52.368;4.940;2023-05-07T00:23:36;27.90;;;16.08;;
40254;SDS011;25973;52.368;4.940;2023-05-07T00:26:02;31.20;;;16.20;;
40254;SDS011;25973;52.368;4.940;2023-05-07T00:28:28;36.35;;;18.48;;
40254;SDS011;25973;52.368;4.940;2023-05-07T00:30:54;29.73;;;17.48;;
40254;SDS011;25973;52.368;4.940;2023-05-07T00:33:19;34.80;;;17.38;;
40254;SDS011;25973;52.368;4.940;2023-05-07T00:35:45;33.83;;;16.95;;
40254;SDS011;25973;52.368;4.940;2023-05-07T00:38:11;33.83;;;16.45;;
40254;SDS011;25973;52.368;4.940;2023-05-07T00:40:37;36.28;;;18.85;;
40254;SDS011;25973;52.368;4.940;2023-05-07T00:43:02;34.50;;;19.75;;
40254;SDS011;25973;52.368;4.940;2023-05-07T00:45:28;33.03;;;18.23;;
40254;SDS011;25973;52.368;4.940;2023-05-07T00:47:58;39.55;;;17.85;;
40254;SDS011;25973;52.368;4.940;2023-05-07T00:50:25;34.40;;;17.10;;
40254;SDS011;25973;52.368;4.940;2023-05-07T00:52:52;33.70;;;16.55;;
40254;SDS011;25973;52.368;4.940;2023-05-07T00:55:18;33.50;;;18.15;;
40254;SDS011;25973;52.368;4.940;2023-05-07T00:57:44;36.90;;;17.48;;
40254;SDS011;25973;52.368;4.940;2023-05-07T01:00:10;34.33;;;17.08;;
40254;SDS011;25973;52.368;4.940;2023-05-07T01:02:38;32.70;;;17.33;;
40254;SDS011;25973;52.368;4.940;2023-05-07T01:05:04;32.60;;;16.90;;
40254;SDS011;25973;52.368;4.940;2023-05-07T01:07:32;30.85;;;17.30;;
40254;SDS011;25973;52.368;4.940;2023-05-07T01:09:58;37.13;;;17.35;;
40254;SDS011;25973;52.368;4.940;2023-05-07T01:12:25;34.22;;;16.63;;
40254;SDS011;25973;52.368;4.940;2023-05-07T01:14:52;32.25;;;17.42;;
40254;SDS011;25973;52.368;4.940;2023-05-07T01:17:18;34.15;;;16.42;;
40254;SDS011;25973;52.368;4.940;2023-05-07T01:19:44;31.98;;;15.93;;
40254;SDS011;25973;52.368;4.940;2023-05-07T01:22:10;28.35;;;16.05;;
40254;SDS011;25973;52.368;4.940;2023-05-07T01:24:40;29.33;;;15.47;;
40254;SDS011;25973;52.368;4.940;2023-05-07T01:27:06;29.90;;;15.60;;
40254;SDS011;25973;52.368;4.940;2023-05-07T01:29:31;24.95;;;13.52;;
40254;SDS011;25973;52.368;4.940;2023-05-07T01:31:58;27.10;;;14.32;;
40254;SDS011;25973;52.368;4.940;2023-05-07T01:34:25;24.88;;;14.63;;
40254;SDS011;25973;52.368;4.940;2023-05-07T01:36:52;28.42;;;14.38;;
40254;SDS011;25973;52.368;4.940;2023-05-07T01:39:18;27.20;;;13.90;;
40254;SDS011;25973;52.368;4.940;2023-05-07T01:41:44;23.17;;;13.50;;
40254;SDS011;25973;52.368;4.940;2023-05-07T01:44:10;23.95;;;13.70;;
40254;SDS011;25973;52.368;4.940;2023-05-07T01:46:37;25.70;;;13.00;;
40254;SDS011;25973;52.368;4.940;2023-05-07T01:49:03;23.58;;;12.40;;
40254;SDS011;25973;52.368;4.940;2023-05-07T01:51:29;22.52;;;12.25;;
40254;SDS011;25973;52.368;4.940;2023-05-07T01:53:55;27.80;;;13.40;;
40254;SDS011;25973;52.368;4.940;2023-05-07T01:56:21;20.95;;;11.20;;
40254;SDS011;25973;52.368;4.940;2023-05-07T01:58:46;19.85;;;10.68;;
40254;SDS011;25973;52.368;4.940;2023-05-07T02:01:13;19.48;;;11.45;;
40254;SDS011;25973;52.368;4.940;2023-05-07T02:03:38;18.88;;;10.93;;
40254;SDS011;25973;52.368;4.940;2023-05-07T02:06:04;18.80;;;11.02;;
40254;SDS011;25973;52.368;4.940;2023-05-07T02:08:30;19.02;;;10.13;;
40254;SDS011;25973;52.368;4.940;2023-05-07T02:10:55;22.77;;;10.48;;
40254;SDS011;25973;52.368;4.940;2023-05-07T02:13:21;13.95;;;9.50;;
40254;SDS011;25973;52.368;4.940;2023-05-07T02:15:47;17.15;;;8.65;;
40254;SDS011;25973;52.368;4.940;2023-05-07T02:18:15;21.42;;;8.73;;
40254;SDS011;25973;52.368;4.940;2023-05-07T02:20:41;15.00;;;8.77;;
40254;SDS011;25973;52.368;4.940;2023-05-07T02:23:10;13.55;;;8.43;;
40254;SDS011;25973;52.368;4.940;2023-05-07T02:25:35;15.00;;;8.43;;
40254;SDS011;25973;52.368;4.940;2023-05-07T02:28:01;17.83;;;9.45;;
40254;SDS011;25973;52.368;4.940;2023-05-07T02:30:26;14.10;;;8.07;;
40254;SDS011;25973;52.368;4.940;2023-05-07T02:32:52;14.82;;;9.43;;
40254;SDS011;25973;52.368;4.940;2023-05-07T02:35:18;14.98;;;8.15;;
40254;SDS011;25973;52.368;4.940;2023-05-07T02:37:43;12.15;;;8.20;;
40254;SDS011;25973;52.368;4.940;2023-05-07T02:40:09;14.43;;;8.40;;
40254;SDS011;25973;52.368;4.940;2023-05-07T02:42:36;14.50;;;8.80;;
40254;SDS011;25973;52.368;4.940;2023-05-07T02:45:01;14.45;;;8.25;;
40254;SDS011;25973;52.368;4.940;2023-05-07T02:47:27;13.80;;;8.00;;
40254;SDS011;25973;52.368;4.940;2023-05-07T02:49:53;11.85;;;7.93;;
40254;SDS011;25973;52.368;4.940;2023-05-07T02:52:20;19.55;;;9.90;;
40254;SDS011;25973;52.368;4.940;2023-05-07T02:54:46;10.48;;;6.78;;
40254;SDS011;25973;52.368;4.940;2023-05-07T02:57:11;36.42;;;14.55;;
40254;SDS011;25973;52.368;4.940;2023-05-07T02:59:37;16.63;;;9.23;;
40254;SDS011;25973;52.368;4.940;2023-05-07T03:02:02;11.15;;;6.25;;
40254;SDS011;25973;52.368;4.940;2023-05-07T03:04:28;9.10;;;5.57;;
40254;SDS011;25973;52.368;4.940;2023-05-07T03:06:53;9.60;;;4.82;;
40254;SDS011;25973;52.368;4.940;2023-05-07T03:09:19;8.57;;;5.10;;
40254;SDS011;25973;52.368;4.940;2023-05-07T03:11:45;8.75;;;5.10;;
40254;SDS011;25973;52.368;4.940;2023-05-07T03:14:10;8.80;;;5.30;;
40254;SDS011;25973;52.368;4.940;2023-05-07T03:16:36;11.00;;;5.28;;
40254;SDS011;25973;52.368;4.940;2023-05-07T03:19:02;8.40;;;4.88;;
40254;SDS011;25973;52.368;4.940;2023-05-07T03:21:28;11.48;;;4.75;;
40254;SDS011;25973;52.368;4.940;2023-05-07T03:23:53;9.02;;;5.55;;
40254;SDS011;25973;52.368;4.940;2023-05-07T03:26:19;10.55;;;4.60;;
40254;SDS011;25973;52.368;4.940;2023-05-07T03:28:45;12.25;;;5.05;;
40254;SDS011;25973;52.368;4.940;2023-05-07T03:31:10;10.75;;;5.07;;
40254;SDS011;25973;52.368;4.940;2023-05-07T03:33:38;7.70;;;4.43;;
40254;SDS011;25973;52.368;4.940;2023-05-07T03:36:16;9.33;;;5.00;;
40254;SDS011;25973;52.368;4.940;2023-05-07T03:38:42;9.60;;;4.65;;
40254;SDS011;25973;52.368;4.940;2023-05-07T03:41:08;9.07;;;4.90;;
40254;SDS011;25973;52.368;4.940;2023-05-07T03:43:33;5.10;;;3.60;;
40254;SDS011;25973;52.368;4.940;2023-05-07T03:45:59;9.68;;;4.53;;
40254;SDS011;25973;52.368;4.940;2023-05-07T03:48:24;9.50;;;4.93;;
40254;SDS011;25973;52.368;4.940;2023-05-07T03:50:50;10.77;;;4.53;;
40254;SDS011;25973;52.368;4.940;2023-05-07T03:53:16;7.93;;;3.83;;
40254;SDS011;25973;52.368;4.940;2023-05-07T03:55:44;8.55;;;3.97;;
40254;SDS011;25973;52.368;4.940;2023-05-07T03:58:09;9.15;;;4.63;;
40254;SDS011;25973;52.368;4.940;2023-05-07T04:00:35;7.70;;;4.03;;
40254;SDS011;25973;52.368;4.940;2023-05-07T04:03:03;7.55;;;3.58;;
40254;SDS011;25973;52.368;4.940;2023-05-07T04:05:29;6.53;;;4.13;;
40254;SDS011;25973;52.368;4.940;2023-05-07T04:07:55;8.85;;;4.68;;
40254;SDS011;25973;52.368;4.940;2023-05-07T04:10:22;7.47;;;4.03;;
40254;SDS011;25973;52.368;4.940;2023-05-07T04:12:48;8.98;;;4.78;;
40254;SDS011;25973;52.368;4.940;2023-05-07T04:15:13;8.15;;;4.10;;
40254;SDS011;25973;52.368;4.940;2023-05-07T04:17:39;10.32;;;4.63;;
40254;SDS011;25973;52.368;4.940;2023-05-07T04:20:06;7.75;;;4.40;;
40254;SDS011;25973;52.368;4.940;2023-05-07T04:22:35;11.90;;;4.47;;
40254;SDS011;25973;52.368;4.940;2023-05-07T04:25:02;8.20;;;4.20;;
40254;SDS011;25973;52.368;4.940;2023-05-07T04:27:28;8.82;;;4.80;;
40254;SDS011;25973;52.368;4.940;2023-05-07T04:29:54;7.30;;;4.75;;
40254;SDS011;25973;52.368;4.940;2023-05-07T04:32:20;8.10;;;5.20;;
40254;SDS011;25973;52.368;4.940;2023-05-07T04:34:46;7.55;;;4.65;;
40254;SDS011;25973;52.368;4.940;2023-05-07T04:37:12;7.70;;;5.30;;
40254;SDS011;25973;52.368;4.940;2023-05-07T04:39:37;10.40;;;5.90;;
40254;SDS011;25973;52.368;4.940;2023-05-07T04:42:03;10.00;;;5.50;;
40254;SDS011;25973;52.368;4.940;2023-05-07T04:44:28;12.75;;;5.90;;
40254;SDS011;25973;52.368;4.940;2023-05-07T04:46:56;14.60;;;5.70;;
40254;SDS011;25973;52.368;4.940;2023-05-07T04:49:21;11.00;;;6.18;;
40254;SDS011;25973;52.368;4.940;2023-05-07T04:51:47;9.18;;;6.38;;
40254;SDS011;25973;52.368;4.940;2023-05-07T04:54:13;10.48;;;6.47;;
40254;SDS011;25973;52.368;4.940;2023-05-07T04:56:38;12.88;;;7.63;;
40254;SDS011;25973;52.368;4.940;2023-05-07T04:59:04;10.40;;;7.35;;
40254;SDS011;25973;52.368;4.940;2023-05-07T05:01:29;12.88;;;7.45;;
40254;SDS011;25973;52.368;4.940;2023-05-07T05:03:55;12.85;;;7.45;;
40254;SDS011;25973;52.368;4.940;2023-05-07T05:06:20;10.90;;;7.60;;
40254;SDS011;25973;52.368;4.940;2023-05-07T05:08:46;15.32;;;7.43;;
40254;SDS011;25973;52.368;4.940;2023-05-07T05:11:11;15.93;;;7.70;;
40254;SDS011;25973;52.368;4.940;2023-05-07T05:13:37;14.68;;;8.10;;
40254;SDS011;25973;52.368;4.940;2023-05-07T05:16:02;12.90;;;7.80;;
40254;SDS011;25973;52.368;4.940;2023-05-07T05:18:28;19.25;;;8.20;;
40254;SDS011;25973;52.368;4.940;2023-05-07T05:20:54;18.38;;;8.82;;
40254;SDS011;25973;52.368;4.940;2023-05-07T05:23:19;17.15;;;9.45;;
40254;SDS011;25973;52.368;4.940;2023-05-07T05:25:45;13.85;;;8.32;;
40254;SDS011;25973;52.368;4.940;2023-05-07T05:28:11;14.20;;;9.23;;
40254;SDS011;25973;52.368;4.940;2023-05-07T05:30:36;14.45;;;8.90;;
40254;SDS011;25973;52.368;4.940;2023-05-07T05:33:02;16.17;;;8.70;;
40254;SDS011;25973;52.368;4.940;2023-05-07T05:35:27;11.43;;;7.60;;
40254;SDS011;25973;52.368;4.940;2023-05-07T05:37:54;17.67;;;8.68;;
40254;SDS011;25973;52.368;4.940;2023-05-07T05:40:20;17.30;;;7.85;;
40254;SDS011;25973;52.368;4.940;2023-05-07T05:42:45;14.05;;;7.72;;
40254;SDS011;25973;52.368;4.940;2023-05-07T05:45:11;14.82;;;7.72;;
40254;SDS011;25973;52.368;4.940;2023-05-07T05:47:37;12.55;;;6.88;;
40254;SDS011;25973;52.368;4.940;2023-05-07T05:50:03;14.85;;;7.30;;
40254;SDS011;25973;52.368;4.940;2023-05-07T05:52:30;10.73;;;7.22;;
40254;SDS011;25973;52.368;4.940;2023-05-07T05:54:56;16.00;;;7.72;;
40254;SDS011;25973;52.368;4.940;2023-05-07T05:57:21;12.30;;;7.20;;
40254;SDS011;25973;52.368;4.940;2023-05-07T05:59:47;11.73;;;7.43;;
40254;SDS011;25973;52.368;4.940;2023-05-07T06:02:13;11.57;;;7.85;;
40254;SDS011;25973;52.368;4.940;2023-05-07T06:04:38;12.80;;;6.57;;
40254;SDS011;25973;52.368;4.940;2023-05-07T06:07:04;14.60;;;7.38;;
40254;SDS011;25973;52.368;4.940;2023-05-07T06:09:29;11.65;;;7.05;;
40254;SDS011;25973;52.368;4.940;2023-05-07T06:11:55;12.93;;;7.20;;
40254;SDS011;25973;52.368;4.940;2023-05-07T06:14:20;10.00;;;6.57;;
40254;SDS011;25973;52.368;4.940;2023-05-07T06:16:46;12.45;;;6.65;;
40254;SDS011;25973;52.368;4.940;2023-05-07T06:19:11;15.13;;;7.40;;
40254;SDS011;25973;52.368;4.940;2023-05-07T06:21:38;10.68;;;6.90;;
40254;SDS011;25973;52.368;4.940;2023-05-07T06:24:04;11.93;;;6.65;;
40254;SDS011;25973;52.368;4.940;2023-05-07T06:26:30;12.52;;;7.85;;
40254;SDS011;25973;52.368;4.940;2023-05-07T06:28:55;11.95;;;6.85;;
40254;SDS011;25973;52.368;4.940;2023-05-07T06:31:21;12.75;;;8.25;;
40254;SDS011;25973;52.368;4.940;2023-05-07T06:33:46;12.32;;;7.22;;
40254;SDS011;25973;52.368;4.940;2023-05-07T06:36:13;10.95;;;6.93;;
40254;SDS011;25973;52.368;4.940;2023-05-07T06:38:38;12.15;;;7.70;;
40254;SDS011;25973;52.368;4.940;2023-05-07T06:41:05;14.75;;;7.65;;
40254;SDS011;25973;52.368;4.940;2023-05-07T06:43:31;11.88;;;7.80;;
40254;SDS011;25973;52.368;4.940;2023-05-07T06:45:58;11.85;;;7.20;;
40254;SDS011;25973;52.368;4.940;2023-05-07T06:48:23;12.10;;;7.18;;
40254;SDS011;25973;52.368;4.940;2023-05-07T06:50:49;11.95;;;7.43;;
40254;SDS011;25973;52.368;4.940;2023-05-07T06:53:15;11.93;;;7.10;;
40254;SDS011;25973;52.368;4.940;2023-05-07T06:55:40;14.27;;;8.07;;
40254;SDS011;25973;52.368;4.940;2023-05-07T06:58:06;11.98;;;8.13;;
40254;SDS011;25973;52.368;4.940;2023-05-07T07:00:32;12.65;;;8.80;;
40254;SDS011;25973;52.368;4.940;2023-05-07T07:02:57;14.00;;;7.90;;
40254;SDS011;25973;52.368;4.940;2023-05-07T07:05:24;13.20;;;8.32;;
40254;SDS011;25973;52.368;4.940;2023-05-07T07:07:50;15.05;;;9.13;;
40254;SDS011;25973;52.368;4.940;2023-05-07T07:10:20;13.82;;;7.57;;
40254;SDS011;25973;52.368;4.940;2023-05-07T07:12:46;13.63;;;8.93;;
40254;SDS011;25973;52.368;4.940;2023-05-07T07:15:13;15.43;;;8.98;;
40254;SDS011;25973;52.368;4.940;2023-05-07T07:17:39;11.68;;;8.45;;
40254;SDS011;25973;52.368;4.940;2023-05-07T07:20:04;15.32;;;9.30;;
40254;SDS011;25973;52.368;4.940;2023-05-07T07:22:30;13.57;;;8.48;;
40254;SDS011;25973;52.368;4.940;2023-05-07T07:24:56;16.45;;;8.50;;
40254;SDS011;25973;52.368;4.940;2023-05-07T07:27:22;12.45;;;8.05;;
40254;SDS011;25973;52.368;4.940;2023-05-07T07:29:47;11.57;;;7.47;;
40254;SDS011;25973;52.368;4.940;2023-05-07T07:32:13;15.15;;;7.47;;
40254;SDS011;25973;52.368;4.940;2023-05-07T07:34:38;11.57;;;7.05;;
40254;SDS011;25973;52.368;4.940;2023-05-07T07:37:04;13.32;;;7.82;;
40254;SDS011;25973;52.368;4.940;2023-05-07T07:39:33;13.55;;;7.75;;
40254;SDS011;25973;52.368;4.940;2023-05-07T07:41:59;11.27;;;7.95;;
40254;SDS011;25973;52.368;4.940;2023-05-07T07:44:25;12.80;;;7.38;;
40254;SDS011;25973;52.368;4.940;2023-05-07T07:46:51;11.25;;;7.55;;
40254;SDS011;25973;52.368;4.940;2023-05-07T07:49:16;13.40;;;7.78;;
40254;SDS011;25973;52.368;4.940;2023-05-07T07:51:42;12.02;;;7.07;;
40254;SDS011;25973;52.368;4.940;2023-05-07T07:54:08;13.70;;;7.75;;
40254;SDS011;25973;52.368;4.940;2023-05-07T07:56:33;12.65;;;8.32;;
40254;SDS011;25973;52.368;4.940;2023-05-07T07:58:59;15.05;;;7.38;;
40254;SDS011;25973;52.368;4.940;2023-05-07T08:01:25;14.05;;;8.48;;
40254;SDS011;25973;52.368;4.940;2023-05-07T08:03:51;12.30;;;7.25;;
40254;SDS011;25973;52.368;4.940;2023-05-07T08:06:16;13.40;;;7.50;;
40254;SDS011;25973;52.368;4.940;2023-05-07T08:08:42;13.40;;;6.85;;
40254;SDS011;25973;52.368;4.940;2023-05-07T08:11:08;10.80;;;7.47;;
40254;SDS011;25973;52.368;4.940;2023-05-07T08:13:34;10.93;;;6.35;;
40254;SDS011;25973;52.368;4.940;2023-05-07T08:15:59;11.82;;;7.10;;
40254;SDS011;25973;52.368;4.940;2023-05-07T08:18:25;10.82;;;7.22;;
40254;SDS011;25973;52.368;4.940;2023-05-07T08:20:53;8.30;;;6.22;;
40254;SDS011;25973;52.368;4.940;2023-05-07T08:23:18;14.27;;;7.68;;
40254;SDS011;25973;52.368;4.940;2023-05-07T08:25:44;9.30;;;6.93;;
40254;SDS011;25973;52.368;4.940;2023-05-07T08:28:09;12.75;;;7.10;;
40254;SDS011;25973;52.368;4.940;2023-05-07T08:30:35;12.40;;;7.43;;
40254;SDS011;25973;52.368;4.940;2023-05-07T08:33:00;10.57;;;6.82;;
40254;SDS011;25973;52.368;4.940;2023-05-07T08:35:26;12.68;;;7.18;;
40254;SDS011;25973;52.368;4.940;2023-05-07T08:37:52;14.90;;;8.93;;
40254;SDS011;25973;52.368;4.940;2023-05-07T08:40:18;14.27;;;7.60;;
40254;SDS011;25973;52.368;4.940;2023-05-07T08:42:44;8.98;;;6.45;;
40254;SDS011;25973;52.368;4.940;2023-05-07T08:45:11;13.75;;;7.72;;
40254;SDS011;25973;52.368;4.940;2023-05-07T08:47:43;11.35;;;7.10;;
40254;SDS011;25973;52.368;4.940;2023-05-07T08:50:10;11.00;;;6.53;;
40254;SDS011;25973;52.368;4.940;2023-05-07T08:52:36;10.55;;;6.05;;
40254;SDS011;25973;52.368;4.940;2023-05-07T08:55:02;11.77;;;7.38;;
40254;SDS011;25973;52.368;4.940;2023-05-07T08:57:28;12.52;;;6.90;;
40254;SDS011;25973;52.368;4.940;2023-05-07T08:59:54;12.88;;;7.78;;
40254;SDS011;25973;52.368;4.940;2023-05-07T09:02:20;9.63;;;6.18;;
40254;SDS011;25973;52.368;4.940;2023-05-07T09:04:45;8.48;;;5.93;;
40254;SDS011;25973;52.368;4.940;2023-05-07T09:07:11;9.63;;;6.63;;
40254;SDS011;25973;52.368;4.940;2023-05-07T09:09:36;10.45;;;7.10;;
40254;SDS011;25973;52.368;4.940;2023-05-07T09:12:02;14.93;;;8.95;;
40254;SDS011;25973;52.368;4.940;2023-05-07T09:14:28;10.30;;;6.57;;
40254;SDS011;25973;52.368;4.940;2023-05-07T09:16:55;11.93;;;6.78;;
40254;SDS011;25973;52.368;4.940;2023-05-07T09:19:24;10.65;;;5.50;;
40254;SDS011;25973;52.368;4.940;2023-05-07T09:22:01;8.93;;;6.28;;
40254;SDS011;25973;52.368;4.940;2023-05-07T09:24:28;9.38;;;5.50;;
40254;SDS011;25973;52.368;4.940;2023-05-07T09:26:58;9.18;;;5.45;;
40254;SDS011;25973;52.368;4.940;2023-05-07T09:29:25;11.48;;;6.55;;
40254;SDS011;25973;52.368;4.940;2023-05-07T09:31:50;9.90;;;5.45;;
40254;SDS011;25973;52.368;4.940;2023-05-07T09:34:16;8.20;;;5.57;;
40254;SDS011;25973;52.368;4.940;2023-05-07T09:36:41;13.38;;;6.75;;
40254;SDS011;25973;52.368;4.940;2023-05-07T09:39:07;12.30;;;7.30;;
40254;SDS011;25973;52.368;4.940;2023-05-07T09:41:33;8.65;;;5.47;;
40254;SDS011;25973;52.368;4.940;2023-05-07T09:44:09;12.10;;;6.85;;
40254;SDS011;25973;52.368;4.940;2023-05-07T09:46:34;9.15;;;6.03;;
40254;SDS011;25973;52.368;4.940;2023-05-07T09:49:03;10.98;;;6.00;;
40254;SDS011;25973;52.368;4.940;2023-05-07T09:51:45;10.98;;;6.40;;
40254;SDS011;25973;52.368;4.940;2023-05-07T09:54:14;13.20;;;6.22;;
40254;SDS011;25973;52.368;4.940;2023-05-07T09:56:40;10.95;;;6.70;;
40254;SDS011;25973;52.368;4.940;2023-05-07T09:59:07;17.05;;;6.85;;
40254;SDS011;25973;52.368;4.940;2023-05-07T10:01:35;9.75;;;5.65;;
40254;SDS011;25973;52.368;4.940;2023-05-07T10:04:02;13.45;;;8.82;;
40254;SDS011;25973;52.368;4.940;2023-05-07T10:06:29;13.35;;;9.45;;
40254;SDS011;25973;52.368;4.940;2023-05-07T10:08:55;12.15;;;8.13;;
40254;SDS011;25973;52.368;4.940;2023-05-07T10:11:21;13.82;;;8.70;;
40254;SDS011;25973;52.368;4.940;2023-05-07T10:13:47;16.40;;;9.57;;
40254;SDS011;25973;52.368;4.940;2023-05-07T10:16:13;11.40;;;8.32;;
40254;SDS011;25973;52.368;4.940;2023-05-07T10:18:40;11.98;;;8.43;;
40254;SDS011;25973;52.368;4.940;2023-05-07T10:21:07;13.35;;;8.52;;
40254;SDS011;25973;52.368;4.940;2023-05-07T10:23:35;13.40;;;8.60;;
40254;SDS011;25973;52.368;4.940;2023-05-07T10:26:04;15.52;;;9.73;;
40254;SDS011;25973;52.368;4.940;2023-05-07T10:28:34;14.88;;;9.27;;
40254;SDS011;25973;52.368;4.940;2023-05-07T10:31:34;14.32;;;10.13;;
40254;SDS011;25973;52.368;4.940;2023-05-07T10:34:06;13.48;;;10.20;;
40254;SDS011;25973;52.368;4.940;2023-05-07T10:36:35;14.02;;;10.35;;
40254;SDS011;25973;52.368;4.940;2023-05-07T10:39:02;16.23;;;10.48;;
40254;SDS011;25973;52.368;4.940;2023-05-07T10:41:27;15.57;;;10.57;;
40254;SDS011;25973;52.368;4.940;2023-05-07T10:43:53;14.95;;;9.82;;
40254;SDS011;25973;52.368;4.940;2023-05-07T10:46:19;12.88;;;9.55;;
40254;SDS011;25973;52.368;4.940;2023-05-07T10:51:26;22.90;;;10.50;;
40254;SDS011;25973;52.368;4.940;2023-05-07T10:56:36;18.58;;;11.15;;
40254;SDS011;25973;52.368;4.940;2023-05-07T11:01:58;15.45;;;10.05;;
40254;SDS011;25973;52.368;4.940;2023-05-07T11:04:27;19.88;;;9.77;;
40254;SDS011;25973;52.368;4.940;2023-05-07T11:07:15;15.70;;;8.95;;
40254;SDS011;25973;52.368;4.940;2023-05-07T11:15:07;14.40;;;9.80;;
40254;SDS011;25973;52.368;4.940;2023-05-07T11:17:56;13.73;;;9.75;;
40254;SDS011;25973;52.368;4.940;2023-05-07T11:26:07;14.55;;;9.50;;
40254;SDS011;25973;52.368;4.940;2023-05-07T11:28:37;16.88;;;10.50;;
40254;SDS011;25973;52.368;4.940;2023-05-07T11:31:03;17.13;;;8.38;;
40254;SDS011;25973;52.368;4.940;2023-05-07T11:33:29;13.18;;;8.95;;
40254;SDS011;25973;52.368;4.940;2023-05-07T11:35:55;14.80;;;8.60;;
40254;SDS011;25973;52.368;4.940;2023-05-07T11:38:21;14.52;;;9.00;;
40254;SDS011;25973;52.368;4.940;2023-05-07T11:40:54;17.88;;;9.38;;
40254;SDS011;25973;52.368;4.940;2023-05-07T11:43:21;18.08;;;9.45;;
40254;SDS011;25973;52.368;4.940;2023-05-07T11:45:47;18.23;;;10.75;;
40254;SDS011;25973;52.368;4.940;2023-05-07T11:48:13;15.45;;;9.05;;
40254;SDS011;25973;52.368;4.940;2023-05-07T11:50:53;14.75;;;8.80;;
40254;SDS011;25973;52.368;4.940;2023-05-07T11:53:24;12.30;;;7.65;;
40254;SDS011;25973;52.368;4.940;2023-05-07T11:55:57;16.63;;;7.85;;
40254;SDS011;25973;52.368;4.940;2023-05-07T11:58:23;13.15;;;8.18;;
40254;SDS011;25973;52.368;4.940;2023-05-07T12:00:50;13.07;;;8.52;;
40254;SDS011;25973;52.368;4.940;2023-05-07T12:03:19;16.45;;;8.35;;
40254;SDS011;25973;52.368;4.940;2023-05-07T12:05:45;13.68;;;8.60;;
40254;SDS011;25973;52.368;4.940;2023-05-07T12:08:19;19.95;;;10.68;;
40254;SDS011;25973;52.368;4.940;2023-05-07T12:10:46;14.60;;;7.90;;
40254;SDS011;25973;52.368;4.940;2023-05-07T12:13:16;17.80;;;8.20;;
40254;SDS011;25973;52.368;4.940;2023-05-07T12:15:43;11.57;;;7.30;;
40254;SDS011;25973;52.368;4.940;2023-05-07T12:18:09;11.80;;;6.68;;
40254;SDS011;25973;52.368;4.940;2023-05-07T12:20:36;10.32;;;6.63;;
40254;SDS011;25973;52.368;4.940;2023-05-07T12:23:02;12.50;;;6.10;;
40254;SDS011;25973;52.368;4.940;2023-05-07T12:25:37;11.40;;;5.72;;
40254;SDS011;25973;52.368;4.940;2023-05-07T12:28:05;9.77;;;5.70;;
40254;SDS011;25973;52.368;4.940;2023-05-07T12:30:36;9.75;;;5.65;;
40254;SDS011;25973;52.368;4.940;2023-05-07T12:33:03;11.38;;;5.10;;
40254;SDS011;25973;52.368;4.940;2023-05-07T12:35:32;9.98;;;4.88;;
40254;SDS011;25973;52.368;4.940;2023-05-07T12:38:04;9.45;;;5.05;;
40254;SDS011;25973;52.368;4.940;2023-05-07T12:40:43;13.20;;;5.30;;
40254;SDS011;25973;52.368;4.940;2023-05-07T12:43:17;7.82;;;4.63;;
40254;SDS011;25973;52.368;4.940;2023-05-07T12:45:47;8.35;;;4.80;;
40254;SDS011;25973;52.368;4.940;2023-05-07T12:48:14;11.30;;;5.13;;
40254;SDS011;25973;52.368;4.940;2023-05-07T12:50:40;8.73;;;4.70;;
40254;SDS011;25973;52.368;4.940;2023-05-07T12:53:06;8.30;;;4.88;;
40254;SDS011;25973;52.368;4.940;2023-05-07T12:55:48;10.37;;;5.47;;
40254;SDS011;25973;52.368;4.940;2023-05-07T12:58:28;14.13;;;5.97;;
40254;SDS011;25973;52.368;4.940;2023-05-07T13:00:56;11.27;;;5.15;;
40254;SDS011;25973;52.368;4.940;2023-05-07T13:03:28;15.60;;;5.82;;
40254;SDS011;25973;52.368;4.940;2023-05-07T13:05:57;14.77;;;5.43;;
40254;SDS011;25973;52.368;4.940;2023-05-07T13:08:31;8.35;;;4.55;;
40254;SDS011;25973;52.368;4.940;2023-05-07T13:11:06;8.07;;;4.45;;
40254;SDS011;25973;52.368;4.940;2023-05-07T13:13:33;9.70;;;5.03;;
40254;SDS011;25973;52.368;4.940;2023-05-07T13:16:03;12.00;;;4.85;;
40254;SDS011;25973;52.368;4.940;2023-05-07T13:18:30;8.30;;;4.15;;
40254;SDS011;25973;52.368;4.940;2023-05-07T13:20:56;8.00;;;3.90;;
40254;SDS011;25973;52.368;4.940;2023-05-07T13:23:23;9.70;;;4.63;;
40254;SDS011;25973;52.368;4.940;2023-05-07T13:25:48;7.80;;;4.43;;
40254;SDS011;25973;52.368;4.940;2023-05-07T13:28:15;8.02;;;4.38;;
40254;SDS011;25973;52.368;4.940;2023-05-07T13:30:41;12.13;;;6.57;;
40254;SDS011;25973;52.368;4.940;2023-05-07T13:33:07;12.80;;;6.38;;
40254;SDS011;25973;52.368;4.940;2023-05-07T13:35:33;15.18;;;5.60;;
40254;SDS011;25973;52.368;4.940;2023-05-07T13:37:58;12.02;;;5.60;;
40254;SDS011;25973;52.368;4.940;2023-05-07T13:40:24;10.63;;;5.70;;
40254;SDS011;25973;52.368;4.940;2023-05-07T13:42:50;11.05;;;6.10;;
40254;SDS011;25973;52.368;4.940;2023-05-07T13:45:16;10.98;;;5.35;;
40254;SDS011;25973;52.368;4.940;2023-05-07T13:47:44;7.00;;;4.55;;
40254;SDS011;25973;52.368;4.940;2023-05-07T13:50:11;9.63;;;4.43;;
40254;SDS011;25973;52.368;4.940;2023-05-07T13:52:38;9.30;;;5.18;;
40254;SDS011;25973;52.368;4.940;2023-05-07T13:55:08;11.95;;;5.13;;
40254;SDS011;25973;52.368;4.940;2023-05-07T13:57:35;8.32;;;5.07;;
40254;SDS011;25973;52.368;4.940;2023-05-07T14:00:01;14.90;;;5.82;;
40254;SDS011;25973;52.368;4.940;2023-05-07T14:02:27;11.63;;;5.70;;
40254;SDS011;25973;52.368;4.940;2023-05-07T14:04:53;16.52;;;8.82;;
40254;SDS011;25973;52.368;4.940;2023-05-07T14:07:18;13.38;;;6.82;;
40254;SDS011;25973;52.368;4.940;2023-05-07T14:09:44;13.90;;;5.70;;
40254;SDS011;25973;52.368;4.940;2023-05-07T14:12:10;14.13;;;5.30;;
40254;SDS011;25973;52.368;4.940;2023-05-07T14:14:35;10.35;;;4.22;;
40254;SDS011;25973;52.368;4.940;2023-05-07T14:17:01;15.18;;;5.15;;
40254;SDS011;25973;52.368;4.940;2023-05-07T14:19:27;18.38;;;5.68;;
40254;SDS011;25973;52.368;4.940;2023-05-07T14:21:52;20.63;;;9.07;;
40254;SDS011;25973;52.368;4.940;2023-05-07T14:24:18;13.80;;;3.97;;
40254;SDS011;25973;52.368;4.940;2023-05-07T14:26:43;10.07;;;3.72;;
40254;SDS011;25973;52.368;4.940;2023-05-07T14:29:10;7.78;;;3.38;;
40254;SDS011;25973;52.368;4.940;2023-05-07T14:31:35;13.93;;;3.40;;
40254;SDS011;25973;52.368;4.940;2023-05-07T14:34:01;20.73;;;3.53;;
40254;SDS011;25973;52.368;4.940;2023-05-07T14:36:27;6.63;;;2.40;;
40254;SDS011;25973;52.368;4.940;2023-05-07T14:38:53;30.77;;;11.18;;
40254;SDS011;25973;52.368;4.940;2023-05-07T14:41:19;15.07;;;3.72;;
40254;SDS011;25973;52.368;4.940;2023-05-07T14:43:46;17.85;;;6.25;;
40254;SDS011;25973;52.368;4.940;2023-05-07T14:46:15;29.67;;;8.82;;
40254;SDS011;25973;52.368;4.940;2023-05-07T14:48:42;8.85;;;2.95;;
40254;SDS011;25973;52.368;4.940;2023-05-07T14:51:09;9.57;;;2.47;;
40254;SDS011;25973;52.368;4.940;2023-05-07T14:53:35;5.07;;;2.38;;